Time;durP1;ratioP1;P1;durP2;ratioP2;P2;SDS_P1;SDS_P2;PMS_P1;PMS_P2;Temp;Humidity;BMP_temperature;BMP_pressure;BME280_temperature;BME280_humidity;BME280_pressure;Samples;Min_cycle;Max_cycle;Signal;HPM_P1;HPM_P2
2022/09/24 00:00:53;;;;;;;0.00;0.00;;;;;;;;;;5016829;28;20041;-85
2022/09/24 00:03:19;;;;;;;0.00;0.00;;;;;;;;;;5016136;28;20041;-84
2022/09/24 00:05:46;;;;;;;0.00;0.00;;;;;;;;;;5016279;28;20046;-83
2022/09/24 00:08:13;;;;;;;0.00;0.00;;;;;;;;;;4999534;28;20053;-83
2022/09/24 00:10:40;;;;;;;0.00;0.00;;;;;;;;;;5016154;28;20041;-84
2022/09/24 00:13:07;;;;;;;0.00;0.00;;;;;;;;;;5016200;28;20045;-84
2022/09/24 00:15:41;;;;;;;0.00;0.00;;;;;;;;;;5016092;28;20037;-84
2022/09/24 00:18:07;;;;;;;0.00;0.00;;;;;;;;;;5014106;28;20049;-84
2022/09/24 00:20:34;;;;;;;0.00;0.00;;;;;;;;;;5016085;28;20177;-84
2022/09/24 00:23:00;;;;;;;0.00;0.00;;;;;;;;;;5015949;28;20091;-83
2022/09/24 00:28:12;;;;;;;0.00;0.00;;;;;;;;;;5015690;28;20042;-85
2022/09/24 00:30:38;;;;;;;0.00;0.00;;;;;;;;;;5033809;28;20033;-85
2022/09/24 00:33:04;;;;;;;0.00;0.00;;;;;;;;;;5015979;28;20041;-85
2022/09/24 00:35:31;;;;;;;0.00;0.00;;;;;;;;;;5015680;28;20037;-84
2022/09/24 00:37:57;;;;;;;0.00;0.00;;;;;;;;;;5015637;28;20476;-85
2022/09/24 00:40:30;;;;;;;0.00;0.00;;;;;;;;;;5016263;28;20053;-85
2022/09/24 00:42:56;;;;;;;0.00;0.00;;;;;;;;;;5015526;28;20041;-83
2022/09/24 00:45:23;;;;;;;0.00;0.00;;;;;;;;;;5015715;28;20037;-84
2022/09/24 00:47:50;;;;;;;0.00;0.00;;;;;;;;;;4999060;28;20041;-83
2022/09/24 00:50:27;;;;;;;0.00;0.00;;;;;;;;;;5015509;28;20095;-84
2022/09/24 00:52:58;;;;;;;0.00;0.00;;;;;;;;;;5015392;28;20041;-84
2022/09/24 00:55:24;;;;;;;0.80;0.10;;;;;;;;;;4999277;28;20087;-84
2022/09/24 00:57:55;;;;;;;0.00;0.00;;;;;;;;;;5015292;28;20033;-84
2022/09/24 01:00:21;;;;;;;0.15;0.00;;;;;;;;;;5015490;28;20381;-84
2022/09/24 01:02:48;;;;;;;0.00;0.00;;;;;;;;;;4999062;28;20045;-83
2022/09/24 01:05:14;;;;;;;0.00;0.00;;;;;;;;;;5015108;28;20052;-84
2022/09/24 01:07:43;;;;;;;0.00;0.00;;;;;;;;;;4998995;28;20053;-83
2022/09/24 01:10:10;;;;;;;0.00;0.00;;;;;;;;;;5015055;28;20056;-84
2022/09/24 01:12:36;;;;;;;0.00;0.00;;;;;;;;;;4998512;28;20091;-83
2022/09/24 01:15:02;;;;;;;0.00;0.00;;;;;;;;;;5014979;28;20233;-84
2022/09/24 01:17:34;;;;;;;0.00;0.00;;;;;;;;;;5015460;28;20355;-83
2022/09/24 01:20:10;;;;;;;0.00;0.00;;;;;;;;;;4998637;28;20064;-84
2022/09/24 01:22:36;;;;;;;0.00;0.00;;;;;;;;;;5015147;28;20045;-84
2022/09/24 01:25:21;;;;;;;0.00;0.00;;;;;;;;;;5014891;28;20404;-84
2022/09/24 01:28:05;;;;;;;0.00;0.00;;;;;;;;;;5015358;28;20045;-84
2022/09/24 01:30:33;;;;;;;0.00;0.00;;;;;;;;;;4998497;28;20497;-85
2022/09/24 01:33:02;;;;;;;0.00;0.00;;;;;;;;;;5015429;28;20556;-84
2022/09/24 01:35:30;;;;;;;0.00;0.00;;;;;;;;;;5016214;28;20045;-85
2022/09/24 01:38:02;;;;;;;0.00;0.00;;;;;;;;;;5021576;28;20037;-84
2022/09/24 01:40:29;;;;;;;0.00;0.00;;;;;;;;;;5021304;28;20053;-83
2022/09/24 01:42:56;;;;;;;0.00;0.00;;;;;;;;;;5039532;28;20051;-84
2022/09/24 01:45:23;;;;;;;0.00;0.00;;;;;;;;;;5005057;28;20081;-84
2022/09/24 01:47:49;;;;;;;0.00;0.00;;;;;;;;;;5021581;28;20045;-84
2022/09/24 01:50:17;;;;;;;0.00;0.00;;;;;;;;;;5021375;28;20037;-84
2022/09/24 01:52:57;;;;;;;0.00;0.00;;;;;;;;;;5021258;28;20467;-84
2022/09/24 01:55:25;;;;;;;0.00;0.00;;;;;;;;;;5021076;28;20117;-85
2022/09/24 01:57:53;;;;;;;0.00;0.00;;;;;;;;;;5004824;28;20044;-84
2022/09/24 02:00:20;;;;;;;0.00;0.00;;;;;;;;;;5039067;28;20045;-84
2022/09/24 02:02:53;;;;;;;0.00;0.00;;;;;;;;;;5004957;28;20044;-83
2022/09/24 02:05:31;;;;;;;0.00;0.00;;;;;;;;;;5004809;28;20091;-83
2022/09/24 02:08:09;;;;;;;0.00;0.00;;;;;;;;;;5021169;28;20433;-85
2022/09/24 02:10:45;;;;;;;0.00;0.00;;;;;;;;;;5004559;28;20037;-84
2022/09/24 02:13:15;;;;;;;0.00;0.00;;;;;;;;;;5005036;28;20042;-84
2022/09/24 02:15:46;;;;;;;0.00;0.00;;;;;;;;;;5004410;28;20073;-84
2022/09/24 02:18:14;;;;;;;0.00;0.00;;;;;;;;;;5021185;28;20481;-84
2022/09/24 02:20:42;;;;;;;0.00;0.00;;;;;;;;;;5020930;28;20484;-84
2022/09/24 02:23:10;;;;;;;0.00;0.00;;;;;;;;;;5039078;28;20063;-84
2022/09/24 02:26:04;;;;;;;0.00;0.00;;;;;;;;;;5004425;28;20186;-85
2022/09/24 02:28:31;;;;;;;0.00;0.00;;;;;;;;;;5000465;28;20110;-84
2022/09/24 02:31:11;;;;;;;0.00;0.00;;;;;;;;;;5020778;28;20041;-85
2022/09/24 02:36:27;;;;;;;0.00;0.00;;;;;;;;;;5038757;28;20041;-85
2022/09/24 02:38:53;;;;;;;0.00;0.00;;;;;;;;;;5020803;28;20037;-84
2022/09/24 02:41:22;;;;;;;0.00;0.00;;;;;;;;;;5020967;28;20419;-85
2022/09/24 02:43:49;;;;;;;0.00;0.00;;;;;;;;;;5020938;28;20053;-85
2022/09/24 02:46:15;;;;;;;0.00;0.00;;;;;;;;;;5020984;28;20049;-85
2022/09/24 02:48:41;;;;;;;0.00;0.00;;;;;;;;;;5016759;28;20385;-85
2022/09/24 02:51:07;;;;;;;0.00;0.00;;;;;;;;;;5017491;28;20049;-85
2022/09/24 02:53:33;;;;;;;0.10;0.10;;;;;;;;;;5035645;28;20034;-85
2022/09/24 02:55:59;;;;;;;0.00;0.00;;;;;;;;;;5017404;28;20520;-85
2022/09/24 02:58:25;;;;;;;0.00;0.00;;;;;;;;;;5017609;28;20041;-84
2022/09/24 03:00:52;;;;;;;0.00;0.00;;;;;;;;;;5017528;28;20192;-84
2022/09/24 03:03:18;;;;;;;0.00;0.00;;;;;;;;;;5017614;28;20052;-84
2022/09/24 03:05:47;;;;;;;0.00;0.00;;;;;;;;;;5017538;28;20041;-85
2022/09/24 03:08:13;;;;;;;0.00;0.00;;;;;;;;;;5017383;28;20586;-84
2022/09/24 03:10:39;;;;;;;0.00;0.00;;;;;;;;;;5017232;28;20076;-85
2022/09/24 03:13:05;;;;;;;0.00;0.00;;;;;;;;;;5001094;28;20037;-84
2022/09/24 03:15:31;;;;;;;0.00;0.00;;;;;;;;;;5017141;28;20049;-84
2022/09/24 03:17:57;;;;;;;0.00;0.00;;;;;;;;;;5001256;28;20056;-85
2022/09/24 03:20:23;;;;;;;0.00;0.00;;;;;;;;;;5017095;28;20041;-84
2022/09/24 03:22:50;;;;;;;0.00;0.00;;;;;;;;;;5000978;28;20077;-83
2022/09/24 03:25:16;;;;;;;0.00;0.00;;;;;;;;;;5016839;28;20076;-83
2022/09/24 03:27:42;;;;;;;0.00;0.00;;;;;;;;;;5017169;28;20037;-83
2022/09/24 03:32:53;;;;;;;0.00;0.00;;;;;;;;;;5016904;28;20045;-84
2022/09/24 03:35:20;;;;;;;0.00;0.00;;;;;;;;;;5017715;28;20056;-83
2022/09/24 03:37:46;;;;;;;0.00;0.00;;;;;;;;;;5016964;28;20155;-84
2022/09/24 03:40:12;;;;;;;0.00;0.00;;;;;;;;;;5034749;28;20048;-87
2022/09/24 03:42:39;;;;;;;0.00;0.00;;;;;;;;;;5000627;28;20085;-85
2022/09/24 03:45:06;;;;;;;0.00;0.00;;;;;;;;;;5016936;28;20049;-84
2022/09/24 03:47:32;;;;;;;0.00;0.00;;;;;;;;;;5016830;28;20115;-85
2022/09/24 03:49:58;;;;;;;0.00;0.00;;;;;;;;;;5016438;28;20046;-84
2022/09/24 03:52:25;;;;;;;0.00;0.00;;;;;;;;;;5000272;28;20408;-84
2022/09/24 03:54:52;;;;;;;0.00;0.00;;;;;;;;;;5016437;28;20042;-83
2022/09/24 03:57:18;;;;;;;0.00;0.00;;;;;;;;;;5016544;28;20044;-84
2022/09/24 03:59:44;;;;;;;0.00;0.00;;;;;;;;;;5016203;28;20053;-85
2022/09/24 04:02:11;;;;;;;0.00;0.00;;;;;;;;;;5016731;28;20052;-85
2022/09/24 04:04:37;;;;;;;0.00;0.00;;;;;;;;;;5000047;28;20041;-85
2022/09/24 04:07:03;;;;;;;0.00;0.00;;;;;;;;;;5015968;28;20112;-85
2022/09/24 04:09:29;;;;;;;0.00;0.00;;;;;;;;;;5016259;28;20106;-86
2022/09/24 04:11:55;;;;;;;0.00;0.00;;;;;;;;;;5016110;28;20116;-85
2022/09/24 04:14:22;;;;;;;0.00;0.00;;;;;;;;;;5000024;28;20495;-85
2022/09/24 04:16:48;;;;;;;0.00;0.00;;;;;;;;;;4999812;28;20088;-85
2022/09/24 04:19:17;;;;;;;0.00;0.00;;;;;;;;;;5016142;28;20092;-85
2022/09/24 04:21:44;;;;;;;0.00;0.00;;;;;;;;;;5015958;28;20049;-85
2022/09/24 04:24:11;;;;;;;0.00;0.00;;;;;;;;;;5015919;28;20045;-84
2022/09/24 04:26:37;;;;;;;0.00;0.00;;;;;;;;;;5015913;28;20041;-85
2022/09/24 04:29:04;;;;;;;0.00;0.00;;;;;;;;;;4999764;28;20045;-85
2022/09/24 04:31:32;;;;;;;0.00;0.00;;;;;;;;;;4999404;28;20033;-83
2022/09/24 04:33:58;;;;;;;0.00;0.00;;;;;;;;;;5015879;28;20041;-84
2022/09/24 04:36:24;;;;;;;0.00;0.00;;;;;;;;;;4999314;28;20038;-84
2022/09/24 04:38:50;;;;;;;0.00;0.00;;;;;;;;;;5015757;28;20120;-84
2022/09/24 04:41:16;;;;;;;0.00;0.00;;;;;;;;;;5015575;28;20044;-84
2022/09/24 04:43:45;;;;;;;0.00;0.00;;;;;;;;;;5015642;28;20105;-83
2022/09/24 04:46:14;;;;;;;0.00;0.00;;;;;;;;;;5015504;28;20090;-84
2022/09/24 04:48:40;;;;;;;0.00;0.00;;;;;;;;;;5015583;28;20408;-84
2022/09/24 04:51:07;;;;;;;0.00;0.00;;;;;;;;;;4998304;28;20057;-83
2022/09/24 04:53:36;;;;;;;0.00;0.00;;;;;;;;;;5015490;28;20049;-85
2022/09/24 04:56:04;;;;;;;0.00;0.00;;;;;;;;;;5015569;28;20038;-85
2022/09/24 04:58:30;;;;;;;0.00;0.00;;;;;;;;;;5015465;28;20444;-85
2022/09/24 05:00:56;;;;;;;0.00;0.00;;;;;;;;;;5015235;28;20049;-83
2022/09/24 05:03:22;;;;;;;0.00;0.00;;;;;;;;;;5015500;28;20037;-84
2022/09/24 05:05:51;;;;;;;0.00;0.00;;;;;;;;;;5015190;28;20041;-84
2022/09/24 05:08:17;;;;;;;0.00;0.00;;;;;;;;;;4998848;28;20057;-84
2022/09/24 05:10:43;;;;;;;0.00;0.00;;;;;;;;;;5014351;28;20045;-84
2022/09/24 05:13:09;;;;;;;0.00;0.00;;;;;;;;;;5015320;28;20045;-84
2022/09/24 05:15:35;;;;;;;0.00;0.00;;;;;;;;;;5015252;28;20045;-84
2022/09/24 05:18:01;;;;;;;0.00;0.00;;;;;;;;;;5015611;28;20128;-84
2022/09/24 05:20:27;;;;;;;0.00;0.00;;;;;;;;;;5014941;28;20052;-85
2022/09/24 05:22:54;;;;;;;0.00;0.00;;;;;;;;;;5015572;28;20052;-84
2022/09/24 05:25:22;;;;;;;0.00;0.00;;;;;;;;;;4998806;28;20385;-84
2022/09/24 05:27:49;;;;;;;0.00;0.00;;;;;;;;;;5014903;28;20053;-85
2022/09/24 05:30:15;;;;;;;0.00;0.00;;;;;;;;;;5015005;28;20048;-83
2022/09/24 05:32:41;;;;;;;0.00;0.00;;;;;;;;;;4998492;28;20262;-87
2022/09/24 05:35:08;;;;;;;0.00;0.00;;;;;;;;;;4998948;28;20288;-85
2022/09/24 05:37:37;;;;;;;0.00;0.00;;;;;;;;;;4998647;28;20041;-84
2022/09/24 05:42:49;;;;;;;0.00;0.00;;;;;;;;;;5014826;28;20497;-86
2022/09/24 05:45:16;;;;;;;0.00;0.00;;;;;;;;;;5014927;28;20044;-86
2022/09/24 05:47:42;;;;;;;0.00;0.00;;;;;;;;;;5014739;28;20053;-86
2022/09/24 05:50:08;;;;;;;0.00;0.00;;;;;;;;;;4998525;28;20045;-85
2022/09/24 05:52:34;;;;;;;0.00;0.00;;;;;;;;;;5014597;28;20048;-85
2022/09/24 05:55:00;;;;;;;0.00;0.00;;;;;;;;;;4998384;28;20045;-86
2022/09/24 05:57:26;;;;;;;0.00;0.00;;;;;;;;;;4998530;28;20411;-85
2022/09/24 05:59:52;;;;;;;0.00;0.00;;;;;;;;;;4998467;28;20045;-84
2022/09/24 06:02:18;;;;;;;0.00;0.00;;;;;;;;;;5014772;28;20067;-85
2022/09/24 06:04:44;;;;;;;0.00;0.00;;;;;;;;;;5014751;28;20037;-85
2022/09/24 06:07:11;;;;;;;0.00;0.00;;;;;;;;;;5014396;28;20464;-86
2022/09/24 06:09:36;;;;;;;0.00;0.00;;;;;;;;;;4998324;28;20116;-85
2022/09/24 06:12:02;;;;;;;0.00;0.00;;;;;;;;;;5014953;28;20173;-85
2022/09/24 06:14:28;;;;;;;0.00;0.00;;;;;;;;;;4998253;28;20103;-83
2022/09/24 06:16:56;;;;;;;0.00;0.00;;;;;;;;;;5014395;28;20059;-84
2022/09/24 06:19:22;;;;;;;0.00;0.00;;;;;;;;;;4998588;28;20447;-83
2022/09/24 06:21:48;;;;;;;0.00;0.00;;;;;;;;;;5015397;28;20575;-85
2022/09/24 06:24:14;;;;;;;0.00;0.00;;;;;;;;;;5018344;28;20079;-86
2022/09/24 06:26:40;;;;;;;0.00;0.00;;;;;;;;;;5018111;28;20389;-85
2022/09/24 06:29:06;;;;;;;0.00;0.00;;;;;;;;;;5018221;28;20106;-85
2022/09/24 06:31:33;;;;;;;0.00;0.00;;;;;;;;;;5018762;28;20124;-89
2022/09/24 06:34:01;;;;;;;0.00;0.00;;;;;;;;;;5002575;28;20045;-89
2022/09/24 06:36:28;;;;;;;0.00;0.00;;;;;;;;;;5002986;28;20405;-90
2022/09/24 06:38:53;;;;;;;0.00;0.00;;;;;;;;;;5019112;28;20501;-90
2022/09/24 06:41:19;;;;;;;0.00;0.00;;;;;;;;;;5002295;28;20197;-90
2022/09/24 06:43:46;;;;;;;0.00;0.00;;;;;;;;;;5019160;28;20447;-90
2022/09/24 06:46:14;;;;;;;0.00;0.00;;;;;;;;;;5002522;28;20124;-88
2022/09/24 06:48:43;;;;;;;0.00;0.00;;;;;;;;;;5001513;28;20052;-88
2022/09/24 06:51:09;;;;;;;0.00;0.00;;;;;;;;;;5002346;28;20140;-91
2022/09/24 06:53:35;;;;;;;0.00;0.00;;;;;;;;;;5018381;28;20116;-90
2022/09/24 06:56:02;;;;;;;0.00;0.00;;;;;;;;;;5018463;28;20037;-84
2022/09/24 06:58:28;;;;;;;0.00;0.00;;;;;;;;;;5001034;28;20117;-90
2022/09/24 07:01:00;;;;;;;0.00;0.00;;;;;;;;;;5017358;28;20408;-82
2022/09/24 07:03:27;;;;;;;0.00;0.00;;;;;;;;;;5033631;28;20045;-89
2022/09/24 07:05:53;;;;;;;0.00;0.00;;;;;;;;;;5018259;28;20084;-89
2022/09/24 07:08:19;;;;;;;0.00;0.00;;;;;;;;;;4998138;28;20145;-89
2022/09/24 07:10:47;;;;;;;0.00;0.00;;;;;;;;;;4998424;28;20074;-89
2022/09/24 07:13:14;;;;;;;0.00;0.00;;;;;;;;;;5014165;28;20042;-88
2022/09/24 07:15:41;;;;;;;0.00;0.00;;;;;;;;;;5014651;28;20069;-89
2022/09/24 07:18:07;;;;;;;0.00;0.00;;;;;;;;;;5014419;28;20135;-87
2022/09/24 07:20:35;;;;;;;0.00;0.00;;;;;;;;;;5014604;28;20085;-87
2022/09/24 07:23:02;;;;;;;0.00;0.00;;;;;;;;;;5014383;28;20544;-90
2022/09/24 07:25:28;;;;;;;0.00;0.00;;;;;;;;;;4997946;28;20049;-87
2022/09/24 07:27:54;;;;;;;0.00;0.00;;;;;;;;;;5014458;28;20046;-90
2022/09/24 07:30:20;;;;;;;0.10;0.10;;;;;;;;;;5014290;28;20049;-89
2022/09/24 07:32:47;;;;;;;0.00;0.00;;;;;;;;;;4997493;28;20117;-85
2022/09/24 07:35:13;;;;;;;0.00;0.00;;;;;;;;;;5013243;28;20046;-89
2022/09/24 07:37:40;;;;;;;0.00;0.00;;;;;;;;;;5013557;28;20553;-91
2022/09/24 07:40:06;;;;;;;0.00;0.00;;;;;;;;;;5027393;28;20034;-86
2022/09/24 07:42:33;;;;;;;0.00;0.00;;;;;;;;;;5025105;28;20045;-89
2022/09/24 07:44:59;;;;;;;0.00;0.00;;;;;;;;;;4997320;28;20045;-90
2022/09/24 07:47:25;;;;;;;0.00;0.00;;;;;;;;;;4997442;28;20042;-85
2022/09/24 07:49:51;;;;;;;0.00;0.00;;;;;;;;;;5013368;28;20045;-87
2022/09/24 07:52:18;;;;;;;0.00;0.00;;;;;;;;;;4997436;28;20044;-85
2022/09/24 07:54:44;;;;;;;0.00;0.00;;;;;;;;;;5013740;28;20042;-87
2022/09/24 07:57:12;;;;;;;0.00;0.00;;;;;;;;;;4997336;28;20037;-88
2022/09/24 07:59:38;;;;;;;0.00;0.00;;;;;;;;;;4997255;28;20085;-86
2022/09/24 08:02:08;;;;;;;0.00;0.00;;;;;;;;;;5013395;28;20045;-87
2022/09/24 08:04:35;;;;;;;0.00;0.00;;;;;;;;;;4996993;28;20050;-87
2022/09/24 08:07:01;;;;;;;0.00;0.00;;;;;;;;;;4997360;28;20057;-90
2022/09/24 08:09:27;;;;;;;0.00;0.00;;;;;;;;;;4982175;28;20046;-90
2022/09/24 08:11:53;;;;;;;0.00;0.00;;;;;;;;;;4978283;28;20078;-91
2022/09/24 08:14:19;;;;;;;0.00;0.00;;;;;;;;;;5010325;28;20528;-87
2022/09/24 08:16:45;;;;;;;0.00;0.00;;;;;;;;;;5010671;28;20038;-88
2022/09/24 08:19:12;;;;;;;0.00;0.00;;;;;;;;;;4977887;28;20217;-83
2022/09/24 08:21:39;;;;;;;0.00;0.00;;;;;;;;;;5010211;28;20088;-89
2022/09/24 08:24:05;;;;;;;0.00;0.00;;;;;;;;;;5010182;28;20140;-89
2022/09/24 08:26:31;;;;;;;0.00;0.00;;;;;;;;;;4978098;28;20038;-91
2022/09/24 08:28:57;;;;;;;0.00;0.00;;;;;;;;;;5010194;28;20390;-88
2022/09/24 08:31:23;;;;;;;0.00;0.00;;;;;;;;;;4977448;28;20088;-88
2022/09/24 08:33:49;;;;;;;0.00;0.00;;;;;;;;;;4977639;28;20160;-88
2022/09/24 08:36:17;;;;;;;0.00;0.00;;;;;;;;;;5010397;28;20446;-88
2022/09/24 08:38:43;;;;;;;0.00;0.00;;;;;;;;;;5009994;28;20092;-88
2022/09/24 08:41:12;;;;;;;0.00;0.00;;;;;;;;;;5010501;28;20050;-89
2022/09/24 08:43:44;;;;;;;0.00;0.00;;;;;;;;;;5010384;28;20082;-89
2022/09/24 08:49:04;;;;;;;0.00;0.00;;;;;;;;;;4993525;28;20050;-89
2022/09/24 08:51:35;;;;;;;0.00;0.00;;;;;;;;;;5010317;28;20385;-88
2022/09/24 08:54:06;;;;;;;0.00;0.00;;;;;;;;;;4977256;28;20042;-89
2022/09/24 08:56:35;;;;;;;0.00;0.00;;;;;;;;;;5009931;28;20497;-88
2022/09/24 08:59:04;;;;;;;0.00;0.00;;;;;;;;;;5009943;28;20093;-89
2022/09/24 09:01:36;;;;;;;0.00;0.00;;;;;;;;;;5010121;28;20133;-88
2022/09/24 09:04:20;;;;;;;0.00;0.00;;;;;;;;;;5009381;28;20118;-87
2022/09/24 09:06:46;;;;;;;0.00;0.00;;;;;;;;;;4980843;28;20046;-90
2022/09/24 09:09:18;;;;;;;1.75;0.10;;;;;;;;;;4996177;28;20374;-89
2022/09/24 09:11:46;;;;;;;0.00;0.00;;;;;;;;;;5012566;28;20037;-88
2022/09/24 09:14:27;;;;;;;0.00;0.00;;;;;;;;;;5012185;28;20033;-85
2022/09/24 09:17:02;;;;;;;0.00;0.00;;;;;;;;;;5012396;28;20112;-87
2022/09/24 09:19:33;;;;;;;0.00;0.00;;;;;;;;;;5011785;28;20050;-85
2022/09/24 09:22:05;;;;;;;0.00;0.00;;;;;;;;;;5012289;28;20051;-87
2022/09/24 09:24:50;;;;;;;0.00;0.00;;;;;;;;;;5011642;28;20046;-86
2022/09/24 09:27:17;;;;;;;0.00;0.00;;;;;;;;;;5011761;28;20048;-86
2022/09/24 09:29:45;;;;;;;0.00;0.00;;;;;;;;;;5011652;28;20042;-87
2022/09/24 09:32:30;;;;;;;0.00;0.00;;;;;;;;;;5011826;28;20046;-86
2022/09/24 09:35:14;;;;;;;0.00;0.00;;;;;;;;;;5011659;28;20052;-87
2022/09/24 09:37:45;;;;;;;0.00;0.00;;;;;;;;;;5011728;28;20038;-87
2022/09/24 09:40:23;;;;;;;0.00;0.00;;;;;;;;;;5011557;28;20042;-86
2022/09/24 09:42:51;;;;;;;0.00;0.00;;;;;;;;;;5011924;28;20068;-87
2022/09/24 09:45:26;;;;;;;0.00;0.00;;;;;;;;;;4999830;28;20182;-86
2022/09/24 09:47:56;;;;;;;0.00;0.00;;;;;;;;;;5012048;28;20049;-88
2022/09/24 09:50:37;;;;;;;0.00;0.00;;;;;;;;;;4995123;28;20045;-86
2022/09/24 09:53:04;;;;;;;0.00;0.00;;;;;;;;;;5011799;28;20477;-86
2022/09/24 09:55:37;;;;;;;0.00;0.00;;;;;;;;;;5011373;28;20034;-85
2022/09/24 09:58:11;;;;;;;0.00;0.00;;;;;;;;;;5014719;28;20485;-86
2022/09/24 10:00:37;;;;;;;0.00;0.00;;;;;;;;;;4998968;28;20125;-86
2022/09/24 10:03:03;;;;;;;0.00;0.00;;;;;;;;;;4999198;28;20052;-86
2022/09/24 10:05:29;;;;;;;0.00;0.00;;;;;;;;;;5015459;28;20049;-85
2022/09/24 10:07:56;;;;;;;0.00;0.00;;;;;;;;;;4999303;28;20137;-85
2022/09/24 10:10:24;;;;;;;0.00;0.00;;;;;;;;;;4998886;28;20053;-86
2022/09/24 10:13:07;;;;;;;0.00;0.00;;;;;;;;;;5015495;28;20049;-86
2022/09/24 10:15:33;;;;;;;0.00;0.00;;;;;;;;;;4998806;28;20034;-87
2022/09/24 10:18:00;;;;;;;0.00;0.00;;;;;;;;;;4999081;28;20390;-87
2022/09/24 10:20:31;;;;;;;0.00;0.00;;;;;;;;;;5015043;28;20045;-87
2022/09/24 10:23:12;;;;;;;0.00;0.00;;;;;;;;;;4999292;28;20065;-87
2022/09/24 10:25:38;;;;;;;0.00;0.00;;;;;;;;;;4999175;28;20441;-88
2022/09/24 10:31:02;;;;;;;0.00;0.00;;;;;;;;;;5015819;28;20085;-87
2022/09/24 10:33:36;;;;;;;0.00;0.00;;;;;;;;;;5015792;28;20045;-88
2022/09/24 10:36:04;;;;;;;0.00;0.00;;;;;;;;;;4999269;28;20037;-88
2022/09/24 10:38:30;;;;;;;0.00;0.00;;;;;;;;;;4999422;28;20041;-86
2022/09/24 10:40:57;;;;;;;0.00;0.00;;;;;;;;;;5015473;28;20045;-84
2022/09/24 10:43:23;;;;;;;0.00;0.00;;;;;;;;;;4999458;28;20378;-88
2022/09/24 10:45:49;;;;;;;0.00;0.00;;;;;;;;;;4999268;28;20076;-86
2022/09/24 10:48:19;;;;;;;0.00;0.00;;;;;;;;;;5015063;28;20045;-86
2022/09/24 10:50:53;;;;;;;0.00;0.00;;;;;;;;;;5014977;28;20482;-87
2022/09/24 10:53:38;;;;;;;0.00;0.00;;;;;;;;;;5015508;28;20600;-88
2022/09/24 10:56:26;;;;;;;0.00;0.00;;;;;;;;;;5014811;28;20042;-87
2022/09/24 10:59:11;;;;;;;0.00;0.00;;;;;;;;;;4997829;28;20393;-87
2022/09/24 11:01:44;;;;;;;0.00;0.00;;;;;;;;;;5015481;28;20081;-87
2022/09/24 11:04:28;;;;;;;0.00;0.00;;;;;;;;;;4997566;28;20644;-85
2022/09/24 11:07:13;;;;;;;0.00;0.00;;;;;;;;;;4997970;28;20085;-88
2022/09/24 11:09:39;;;;;;;0.00;0.00;;;;;;;;;;5012984;28;20478;-87
2022/09/24 11:12:05;;;;;;;0.00;0.00;;;;;;;;;;5014085;28;20272;-86
2022/09/24 11:14:50;;;;;;;0.00;0.00;;;;;;;;;;4997439;28;20042;-88
2022/09/24 11:17:22;;;;;;;0.00;0.00;;;;;;;;;;5014142;28;20034;-87
2022/09/24 11:19:47;;;;;;;0.00;0.00;;;;;;;;;;5014130;28;20041;-86
2022/09/24 11:22:13;;;;;;;0.00;0.00;;;;;;;;;;4997940;28;20052;-86
2022/09/24 11:24:55;;;;;;;0.00;0.00;;;;;;;;;;4997479;28;20046;-87
2022/09/24 11:27:24;;;;;;;0.00;0.00;;;;;;;;;;4997815;28;20482;-87
2022/09/24 11:29:53;;;;;;;0.00;0.00;;;;;;;;;;4997470;28;20052;-88
2022/09/24 11:32:25;;;;;;;0.00;0.00;;;;;;;;;;5014132;28;20041;-87
2022/09/24 11:35:23;;;;;;;0.00;0.00;;;;;;;;;;5014119;28;20101;-87
2022/09/24 11:38:08;;;;;;;0.00;0.00;;;;;;;;;;4992364;28;20049;-87
2022/09/24 11:40:50;;;;;;;0.00;0.00;;;;;;;;;;5013956;28;20049;-86
2022/09/24 11:43:20;;;;;;;0.00;0.00;;;;;;;;;;5018524;28;20052;-87
2022/09/24 11:46:01;;;;;;;0.00;0.00;;;;;;;;;;5015306;28;20046;-86
2022/09/24 11:48:49;;;;;;;0.00;0.00;;;;;;;;;;5014818;28;20041;-87
2022/09/24 11:51:15;;;;;;;0.00;0.00;;;;;;;;;;5013422;28;20052;-86
2022/09/24 11:53:44;;;;;;;0.00;0.00;;;;;;;;;;5014035;28;20181;-88
2022/09/24 11:56:16;;;;;;;0.00;0.00;;;;;;;;;;5013474;28;20061;-86
2022/09/24 11:58:45;;;;;;;0.00;0.00;;;;;;;;;;5013484;28;20504;-86
2022/09/24 12:01:22;;;;;;;0.00;0.00;;;;;;;;;;5013837;28;20394;-86
2022/09/24 12:03:57;;;;;;;0.00;0.00;;;;;;;;;;5012066;28;20093;-85
2022/09/24 12:06:32;;;;;;;0.00;0.00;;;;;;;;;;5012826;28;20128;-85
2022/09/24 12:09:02;;;;;;;0.00;0.00;;;;;;;;;;5013490;28;20053;-87
2022/09/24 12:11:45;;;;;;;0.00;0.00;;;;;;;;;;4996737;28;20042;-87
2022/09/24 12:14:14;;;;;;;0.00;0.00;;;;;;;;;;5013730;28;20367;-87
2022/09/24 12:16:43;;;;;;;0.00;0.00;;;;;;;;;;4996616;28;20096;-86
2022/09/24 12:19:16;;;;;;;0.00;0.00;;;;;;;;;;4996742;28;20066;-87
2022/09/24 12:21:44;;;;;;;0.00;0.00;;;;;;;;;;4996415;28;20038;-87
2022/09/24 12:24:15;;;;;;;0.00;0.00;;;;;;;;;;4980749;28;20125;-86
2022/09/24 12:26:42;;;;;;;0.00;0.00;;;;;;;;;;5012917;28;20069;-85
2022/09/24 12:35:11;;;;;;;0.00;0.00;;;;;;;;;;5012557;28;20048;-86
2022/09/24 12:37:39;;;;;;;0.00;0.00;;;;;;;;;;5012980;28;20041;-86
2022/09/24 12:40:20;;;;;;;0.00;0.00;;;;;;;;;;5012633;28;20096;-87
2022/09/24 12:42:49;;;;;;;0.00;0.00;;;;;;;;;;4996579;28;20512;-87
2022/09/24 12:45:25;;;;;;;0.00;0.00;;;;;;;;;;5012674;28;20034;-88
2022/09/24 12:47:54;;;;;;;0.00;0.00;;;;;;;;;;4996621;28;20125;-88
2022/09/24 12:50:22;;;;;;;0.00;0.00;;;;;;;;;;5012217;28;20053;-87
2022/09/24 12:52:48;;;;;;;0.00;0.00;;;;;;;;;;5012640;28;20042;-86
2022/09/24 12:55:19;;;;;;;0.00;0.00;;;;;;;;;;4995758;28;20120;-87
2022/09/24 12:57:55;;;;;;;0.00;0.00;;;;;;;;;;5012545;28;20470;-87
2022/09/24 13:00:37;;;;;;;0.00;0.00;;;;;;;;;;5009448;28;20107;-85
2022/09/24 13:03:04;;;;;;;0.00;0.00;;;;;;;;;;4996002;28;20049;-86
2022/09/24 13:05:40;;;;;;;0.00;0.00;;;;;;;;;;5011979;28;20050;-86
2022/09/24 13:08:22;;;;;;;0.00;0.00;;;;;;;;;;5012233;28;20564;-88
2022/09/24 13:10:54;;;;;;;0.00;0.00;;;;;;;;;;5012087;28;20045;-87
2022/09/24 13:13:24;;;;;;;0.00;0.00;;;;;;;;;;4995572;28;20121;-87
2022/09/24 13:16:11;;;;;;;0.00;0.00;;;;;;;;;;5011939;28;20148;-86
2022/09/24 13:18:37;;;;;;;0.00;0.00;;;;;;;;;;5005209;28;20048;-86
2022/09/24 13:21:05;;;;;;;0.00;0.00;;;;;;;;;;5012000;28;20045;-86
2022/09/24 13:23:40;;;;;;;0.00;0.00;;;;;;;;;;4995696;28;20042;-87
2022/09/24 13:26:12;;;;;;;0.00;0.00;;;;;;;;;;5011765;28;20397;-88
2022/09/24 13:28:39;;;;;;;0.00;0.00;;;;;;;;;;4995485;28;20489;-87
2022/09/24 13:31:14;;;;;;;0.00;0.00;;;;;;;;;;4994975;28;20040;-89
2022/09/24 13:33:42;;;;;;;0.00;0.00;;;;;;;;;;5012049;28;20046;-89
2022/09/24 13:36:17;;;;;;;0.00;0.00;;;;;;;;;;4995489;28;20034;-86
2022/09/24 13:38:56;;;;;;;0.00;0.00;;;;;;;;;;5012085;28;20100;-84
2022/09/24 13:41:42;;;;;;;0.00;0.00;;;;;;;;;;5017497;28;20053;-87
2022/09/24 13:44:08;;;;;;;;;;;;;;;;;;5022237;28;20042;-89
2022/09/24 13:46:34;;;;;;;0.00;0.00;;;;;;;;;;5012078;28;19917;-87
2022/09/24 13:49:02;;;;;;;0.00;0.00;;;;;;;;;;4995896;28;20105;-86
2022/09/24 13:51:29;;;;;;;0.00;0.00;;;;;;;;;;5011671;28;20402;-88
2022/09/24 13:54:01;;;;;;;0.00;0.00;;;;;;;;;;5012036;28;20081;-87
2022/09/24 13:56:27;;;;;;;0.00;0.00;;;;;;;;;;5011713;28;20143;-87
2022/09/24 13:59:03;;;;;;;0.00;0.00;;;;;;;;;;5011789;28;20042;-86
2022/09/24 14:01:34;;;;;;;0.00;0.00;;;;;;;;;;5011732;28;20050;-88
2022/09/24 14:04:02;;;;;;;0.00;0.00;;;;;;;;;;5011763;28;20042;-87
2022/09/24 14:06:39;;;;;;;0.00;0.00;;;;;;;;;;5011490;28;20489;-86
2022/09/24 14:09:25;;;;;;;0.00;0.00;;;;;;;;;;5011745;28;20077;-86
2022/09/24 14:11:52;;;;;;;0.00;0.00;;;;;;;;;;5011684;28;20054;-89
2022/09/24 14:14:20;;;;;;;0.00;0.00;;;;;;;;;;5011823;28;20053;-88
2022/09/24 14:16:46;;;;;;;0.00;0.00;;;;;;;;;;4995256;28;20409;-88
2022/09/24 14:19:12;;;;;;;0.00;0.00;;;;;;;;;;4995525;28;20041;-88
2022/09/24 14:21:41;;;;;;;0.00;0.00;;;;;;;;;;5011696;28;20069;-88
2022/09/24 14:24:13;;;;;;;0.00;0.00;;;;;;;;;;5012036;28;20513;-88
2022/09/24 14:26:50;;;;;;;0.00;0.00;;;;;;;;;;4995448;28;20069;-89
2022/09/24 14:29:18;;;;;;;0.00;0.00;;;;;;;;;;5011743;28;20375;-89
2022/09/24 14:31:45;;;;;;;0.00;0.00;;;;;;;;;;4995290;28;20041;-87
2022/09/24 14:34:25;;;;;;;0.38;0.30;;;;;;;;;;5011878;28;20046;-89
2022/09/24 14:36:51;;;;;;;0.00;0.00;;;;;;;;;;4995294;28;20038;-90
2022/09/24 14:39:17;;;;;;;0.00;0.00;;;;;;;;;;5011787;28;20113;-90
2022/09/24 14:41:43;;;;;;;0.00;0.00;;;;;;;;;;5011880;28;20072;-89
2022/09/24 14:44:21;;;;;;;0.00;0.00;;;;;;;;;;5014782;28;20095;-90
2022/09/24 14:46:51;;;;;;;0.00;0.00;;;;;;;;;;5014873;28;20120;-87
2022/09/24 14:49:17;;;;;;;0.00;0.00;;;;;;;;;;5012211;28;20501;-90
2022/09/24 14:52:10;;;;;;;0.00;0.00;;;;;;;;;;5001128;28;20046;-88
2022/09/24 14:54:39;;;;;;;0.00;0.00;;;;;;;;;;4983360;28;20045;-86
2022/09/24 14:57:17;;;;;;;0.00;0.00;;;;;;;;;;5018552;28;20045;-87
2022/09/24 14:59:43;;;;;;;0.00;0.00;;;;;;;;;;5017973;28;20048;-87
2022/09/24 15:02:29;;;;;;;0.00;0.00;;;;;;;;;;5017578;28;20042;-88
2022/09/24 15:04:57;;;;;;;0.00;0.00;;;;;;;;;;5023608;28;20128;-89
2022/09/24 15:07:24;;;;;;;0.00;0.00;;;;;;;;;;5011406;28;20603;-88
2022/09/24 15:09:58;;;;;;;0.00;0.00;;;;;;;;;;5017791;28;20396;-87
2022/09/24 15:12:34;;;;;;;0.00;0.00;;;;;;;;;;5002225;28;20043;-88
2022/09/24 15:15:03;;;;;;;0.00;0.00;;;;;;;;;;5034428;23;20090;-88
2022/09/24 15:17:31;;;;;;;0.00;0.00;;;;;;;;;;5033542;28;20049;-87
2022/09/24 15:19:57;;;;;;;0.00;0.00;;;;;;;;;;5034301;28;20366;-87